Time;durP1;ratioP1;P1;durP2;ratioP2;P2;SDS_P1;SDS_P2;PMS_P1;PMS_P2;Temp;Humidity;BMP_temperature;BMP_pressure;BME280_temperature;BME280_humidity;BME280_pressure;Samples;Min_cycle;Max_cycle;Signal;HPM_P1;HPM_P2
2021/09/14 00:01:15;;;;;;;3.75;1.75;;;;;;;;;;5050685;28;20117;-58
2021/09/14 00:03:41;;;;;;;2.13;1.67;;;;;;;;;;5046970;28;20108;-56
2021/09/14 00:06:07;;;;;;;2.92;1.75;;;;;;;;;;5063402;28;20031;-58
2021/09/14 00:08:33;;;;;;;2.38;1.48;;;;;;;;;;5049711;28;20061;-55
2021/09/14 00:11:01;;;;;;;3.33;1.83;;;;;;;;;;5055551;28;20079;-54
2021/09/14 00:13:27;;;;;;;2.58;1.45;;;;;;;;;;5036147;28;20116;-56
2021/09/14 00:15:53;;;;;;;2.45;1.52;;;;;;;;;;5050153;28;20029;-56
2021/09/14 00:18:19;;;;;;;2.35;1.70;;;;;;;;;;5054453;28;20121;-57
2021/09/14 00:20:44;;;;;;;5.90;1.95;;;;;;;;;;5047576;28;20457;-54
2021/09/14 00:23:10;;;;;;;2.83;1.52;;;;;;;;;;5047867;28;20091;-57
2021/09/14 00:25:37;;;;;;;4.47;1.80;;;;;;;;;;5050878;28;20056;-54
2021/09/14 00:28:03;;;;;;;3.28;1.60;;;;;;;;;;5046597;28;20037;-55
2021/09/14 00:30:29;;;;;;;2.08;1.50;;;;;;;;;;5051439;28;20087;-56
2021/09/14 00:32:55;;;;;;;2.35;1.73;;;;;;;;;;5048238;28;20029;-58
2021/09/14 00:35:21;;;;;;;2.72;1.63;;;;;;;;;;5057979;28;20031;-58
2021/09/14 00:37:47;;;;;;;2.58;1.70;;;;;;;;;;5053365;28;20120;-58
2021/09/14 00:40:13;;;;;;;2.67;2.00;;;;;;;;;;5043748;28;20017;-58
2021/09/14 00:42:39;;;;;;;2.17;1.52;;;;;;;;;;5054160;28;20469;-55
2021/09/14 00:45:06;;;;;;;5.07;1.80;;;;;;;;;;5050285;28;20040;-55
2021/09/14 00:47:32;;;;;;;2.78;1.60;;;;;;;;;;5055259;28;20111;-58
2021/09/14 00:49:59;;;;;;;2.92;1.38;;;;;;;;;;5040864;28;20604;-57
2021/09/14 00:52:26;;;;;;;2.63;1.60;;;;;;;;;;5046423;28;20029;-58
2021/09/14 00:54:52;;;;;;;2.60;1.70;;;;;;;;;;5038257;28;20037;-52
2021/09/14 00:57:18;;;;;;;2.10;1.52;;;;;;;;;;5045342;28;20116;-55
2021/09/14 00:59:44;;;;;;;1.42;1.20;;;;;;;;;;5053774;28;20037;-56
2021/09/14 01:02:10;;;;;;;2.78;1.50;;;;;;;;;;5046942;28;20021;-57
2021/09/14 01:04:36;;;;;;;3.75;1.83;;;;;;;;;;5046611;28;20036;-54
2021/09/14 01:07:03;;;;;;;2.15;1.58;;;;;;;;;;5044707;28;20112;-57
2021/09/14 01:09:33;;;;;;;2.78;1.60;;;;;;;;;;5049815;28;20404;-57
2021/09/14 01:11:59;;;;;;;2.88;1.50;;;;;;;;;;5058594;28;20021;-58
2021/09/14 01:14:25;;;;;;;2.20;1.40;;;;;;;;;;5048830;28;20494;-57
2021/09/14 01:16:51;;;;;;;2.95;1.52;;;;;;;;;;5042650;28;20100;-59
2021/09/14 01:19:17;;;;;;;2.55;1.70;;;;;;;;;;5054885;28;20071;-57
2021/09/14 01:21:43;;;;;;;2.25;1.40;;;;;;;;;;5057724;28;20455;-59
2021/09/14 01:24:09;;;;;;;1.95;1.33;;;;;;;;;;5056183;28;20059;-58
2021/09/14 01:26:35;;;;;;;3.13;1.98;;;;;;;;;;5054462;28;20040;-57
2021/09/14 01:29:08;;;;;;;2.50;1.67;;;;;;;;;;5059378;28;20037;-57
2021/09/14 01:31:34;;;;;;;4.40;1.65;;;;;;;;;;5041642;28;20028;-56
2021/09/14 01:34:00;;;;;;;2.67;1.70;;;;;;;;;;5048393;28;20105;-58
2021/09/14 01:36:26;;;;;;;4.45;1.60;;;;;;;;;;5057266;28;20024;-56
2021/09/14 01:38:52;;;;;;;1.67;1.25;;;;;;;;;;5053073;28;20022;-58
2021/09/14 01:41:18;;;;;;;2.75;1.60;;;;;;;;;;5034907;28;20059;-56
2021/09/14 01:43:44;;;;;;;2.85;1.40;;;;;;;;;;5060722;28;20029;-57
2021/09/14 01:46:10;;;;;;;2.70;1.98;;;;;;;;;;5055758;28;20052;-58
2021/09/14 01:48:37;;;;;;;2.55;1.45;;;;;;;;;;5054775;28;20037;-57
2021/09/14 01:51:03;;;;;;;2.53;1.95;;;;;;;;;;5046706;28;20071;-54
2021/09/14 01:53:29;;;;;;;3.75;1.60;;;;;;;;;;5049546;28;20111;-56
2021/09/14 01:56:00;;;;;;;4.38;1.42;;;;;;;;;;5051056;28;20036;-57
2021/09/14 01:58:26;;;;;;;2.55;1.73;;;;;;;;;;5058830;28;20033;-57
2021/09/14 02:01:21;;;;;;;2.78;1.90;;;;;;;;;;5047978;28;20029;-56
2021/09/14 02:03:56;;;;;;;5.45;1.70;;;;;;;;;;5053145;28;21670;-56
2021/09/14 02:23:36;;;;;;;2.15;1.30;;;;;;;;;;5054816;28;20036;-58
2021/09/14 02:38:17;;;;;;;2.85;1.88;;;;;;;;;;5051147;28;20044;-56
2021/09/14 02:42:26;;;;;;;3.17;1.80;;;;;;;;;;5039522;28;20041;-56
2021/09/14 02:58:41;;;;;;;3.42;1.73;;;;;;;;;;5047318;28;20044;-55
2021/09/14 03:01:08;;;;;;;1.88;1.48;;;;;;;;;;5055191;28;20037;-58
2021/09/14 03:03:35;;;;;;;3.55;1.70;;;;;;;;;;5047452;28;20408;-57
2021/09/14 03:06:01;;;;;;;4.90;1.38;;;;;;;;;;5054240;28;20025;-58
2021/09/14 03:08:27;;;;;;;3.53;2.10;;;;;;;;;;5041762;28;20091;-57
2021/09/14 03:10:53;;;;;;;2.33;1.45;;;;;;;;;;5053076;28;20487;-56
2021/09/14 03:13:19;;;;;;;3.17;1.73;;;;;;;;;;5057192;28;20017;-55
2021/09/14 03:15:45;;;;;;;2.88;1.33;;;;;;;;;;5044552;28;20485;-56
2021/09/14 03:18:11;;;;;;;2.35;1.40;;;;;;;;;;5046723;28;20032;-56
2021/09/14 03:20:37;;;;;;;3.78;1.63;;;;;;;;;;5032723;28;20044;-56
2021/09/14 03:23:03;;;;;;;3.15;1.67;;;;;;;;;;5054773;28;20036;-56
2021/09/14 03:25:29;;;;;;;3.05;1.45;;;;;;;;;;5051985;28;20029;-56
2021/09/14 03:27:55;;;;;;;3.88;1.40;;;;;;;;;;5050864;28;20144;-57
2021/09/14 03:30:21;;;;;;;1.58;1.20;;;;;;;;;;5051771;28;20028;-58
2021/09/14 03:32:47;;;;;;;2.90;1.50;;;;;;;;;;5052090;28;20049;-58
2021/09/14 03:35:13;;;;;;;3.45;1.23;;;;;;;;;;5044129;28;20033;-56
2021/09/14 03:37:39;;;;;;;1.65;1.20;;;;;;;;;;5043368;28;20111;-58
2021/09/14 03:40:05;;;;;;;2.85;1.40;;;;;;;;;;5041925;28;20108;-58
2021/09/14 03:42:31;;;;;;;2.65;1.58;;;;;;;;;;5052678;28;20101;-57
2021/09/14 03:44:57;;;;;;;3.97;1.42;;;;;;;;;;5047150;28;20473;-57
2021/09/14 03:47:23;;;;;;;1.88;1.33;;;;;;;;;;5028144;28;20033;-56
2021/09/14 03:49:49;;;;;;;1.70;1.13;;;;;;;;;;5036973;28;20032;-57
2021/09/14 03:52:15;;;;;;;2.88;1.60;;;;;;;;;;5038183;28;20053;-58
2021/09/14 03:54:41;;;;;;;2.05;1.13;;;;;;;;;;5036649;28;20025;-56
2021/09/14 03:57:07;;;;;;;3.20;1.60;;;;;;;;;;5047437;28;20029;-57
2021/09/14 03:59:38;;;;;;;2.85;1.17;;;;;;;;;;5043256;28;20083;-54
2021/09/14 04:02:11;;;;;;;1.55;1.13;;;;;;;;;;5046113;28;20018;-58
2021/09/14 04:04:49;;;;;;;2.50;1.58;;;;;;;;;;5045180;28;20029;-55
2021/09/14 04:10:00;;;;;;;3.90;1.30;;;;;;;;;;5046237;28;20055;-57
2021/09/14 04:12:26;;;;;;;2.28;1.40;;;;;;;;;;5047704;28;20029;-56
2021/09/14 04:14:51;;;;;;;2.40;1.60;;;;;;;;;;5044010;28;20036;-57
2021/09/14 04:17:18;;;;;;;2.42;1.50;;;;;;;;;;5029521;28;20029;-55
2021/09/14 04:19:43;;;;;;;1.67;1.10;;;;;;;;;;5046523;28;20394;-56
2021/09/14 04:22:09;;;;;;;2.63;1.30;;;;;;;;;;5044543;28;20050;-56
2021/09/14 04:24:35;;;;;;;3.03;1.48;;;;;;;;;;5046451;28;20029;-55
2021/09/14 04:27:01;;;;;;;3.05;1.42;;;;;;;;;;5049054;28;20100;-57
2021/09/14 04:29:28;;;;;;;2.78;1.40;;;;;;;;;;5052294;28;20044;-58
2021/09/14 04:31:54;;;;;;;4.13;2.05;;;;;;;;;;5049007;28;20407;-58
2021/09/14 04:34:20;;;;;;;2.00;1.40;;;;;;;;;;5059489;28;20155;-58
2021/09/14 04:36:46;;;;;;;2.22;1.45;;;;;;;;;;5052395;28;20029;-58
2021/09/14 04:39:12;;;;;;;2.42;1.67;;;;;;;;;;5045502;28;20036;-57
2021/09/14 04:41:38;;;;;;;3.60;1.70;;;;;;;;;;5048752;28;20040;-58
2021/09/14 04:44:04;;;;;;;3.20;1.58;;;;;;;;;;5043245;28;20441;-58
2021/09/14 04:46:30;;;;;;;3.28;1.60;;;;;;;;;;5059432;28;20040;-53
2021/09/14 04:48:56;;;;;;;3.20;1.60;;;;;;;;;;5050999;28;20029;-54
2021/09/14 04:51:22;;;;;;;2.83;1.70;;;;;;;;;;5041698;28;20155;-56
2021/09/14 04:53:48;;;;;;;4.38;1.80;;;;;;;;;;5046871;28;20375;-56
2021/09/14 04:56:14;;;;;;;1.77;1.60;;;;;;;;;;5050465;28;20488;-54
2021/09/14 04:58:41;;;;;;;2.78;2.05;;;;;;;;;;5045993;28;20076;-54
2021/09/14 05:01:07;;;;;;;3.10;1.80;;;;;;;;;;5041273;28;20476;-56
2021/09/14 05:03:33;;;;;;;3.75;1.95;;;;;;;;;;5044026;28;20350;-57
2021/09/14 05:05:59;;;;;;;3.13;1.67;;;;;;;;;;5040118;28;20037;-57
2021/09/14 05:08:25;;;;;;;2.55;1.55;;;;;;;;;;5035254;28;20037;-57
2021/09/14 05:10:51;;;;;;;2.30;1.60;;;;;;;;;;5047082;28;20036;-57
2021/09/14 05:13:17;;;;;;;4.85;2.22;;;;;;;;;;5039262;28;20028;-54
2021/09/14 05:15:44;;;;;;;3.67;1.60;;;;;;;;;;5058510;28;20039;-57
2021/09/14 05:18:11;;;;;;;3.97;1.58;;;;;;;;;;5055358;28;20151;-56
2021/09/14 05:20:38;;;;;;;3.42;1.73;;;;;;;;;;5059289;28;20127;-58
2021/09/14 05:23:37;;;;;;;2.25;1.70;;;;;;;;;;5050023;28;20047;-58
2021/09/14 05:25:57;;;;;;;3.10;1.90;;;;;;;;;;5066746;28;20033;-56
2021/09/14 05:28:24;;;;;;;3.30;1.80;;;;;;;;;;5045555;28;20083;-58
2021/09/14 05:30:50;;;;;;;4.30;2.00;;;;;;;;;;5059443;28;20043;-58
2021/09/14 05:33:16;;;;;;;2.78;1.50;;;;;;;;;;5031650;28;20028;-58
2021/09/14 05:35:50;;;;;;;3.38;2.25;;;;;;;;;;5069047;28;20383;-54
2021/09/14 05:38:18;;;;;;;3.75;1.90;;;;;;;;;;5059670;28;20025;-57
2021/09/14 05:40:44;;;;;;;2.83;1.70;;;;;;;;;;5049217;28;20118;-58
2021/09/14 05:43:10;;;;;;;3.95;1.83;;;;;;;;;;5043223;28;20116;-57
2021/09/14 05:45:37;;;;;;;4.72;2.17;;;;;;;;;;5054611;28;20040;-58
2021/09/14 05:48:03;;;;;;;4.25;1.85;;;;;;;;;;5047089;28;20036;-57
2021/09/14 05:50:29;;;;;;;2.67;1.92;;;;;;;;;;5054527;28;20040;-57
2021/09/14 05:52:55;;;;;;;2.60;1.70;;;;;;;;;;5036380;28;20036;-55
2021/09/14 05:55:22;;;;;;;2.65;1.80;;;;;;;;;;5047096;28;20387;-56
2021/09/14 05:57:48;;;;;;;6.00;2.03;;;;;;;;;;5056157;28;20033;-56
2021/09/14 06:00:14;;;;;;;2.65;1.95;;;;;;;;;;5044795;28;20052;-53
2021/09/14 06:02:40;;;;;;;2.58;1.70;;;;;;;;;;5050079;28;20081;-55
2021/09/14 06:05:07;;;;;;;4.25;2.05;;;;;;;;;;5052820;28;20122;-56
2021/09/14 06:07:33;;;;;;;5.93;2.42;;;;;;;;;;5055064;28;20067;-57
2021/09/14 06:10:00;;;;;;;4.55;2.22;;;;;;;;;;5066220;28;20650;-57
2021/09/14 06:12:26;;;;;;;3.38;2.33;;;;;;;;;;5040936;28;20057;-57
2021/09/14 06:14:52;;;;;;;3.15;2.10;;;;;;;;;;5042773;28;20033;-55
2021/09/14 06:17:18;;;;;;;3.53;2.20;;;;;;;;;;5051965;28;20033;-58
2021/09/14 06:19:44;;;;;;;4.72;2.92;;;;;;;;;;5057984;28;20044;-58
2021/09/14 06:22:11;;;;;;;2.83;1.98;;;;;;;;;;5040742;28;20029;-56
2021/09/14 06:24:37;;;;;;;4.35;2.45;;;;;;;;;;5045287;28;20032;-58
2021/09/14 06:27:03;;;;;;;6.40;2.55;;;;;;;;;;5049480;28;20025;-58
2021/09/14 06:29:29;;;;;;;5.40;2.40;;;;;;;;;;5045907;28;20086;-57
2021/09/14 06:31:55;;;;;;;7.93;2.78;;;;;;;;;;5050270;28;20025;-56
2021/09/14 06:34:21;;;;;;;7.10;2.50;;;;;;;;;;5053024;28;20139;-56
2021/09/14 06:36:47;;;;;;;3.80;2.40;;;;;;;;;;5048144;28;20064;-58
2021/09/14 06:39:13;;;;;;;7.18;2.83;;;;;;;;;;5054264;28;20025;-57
2021/09/14 06:41:39;;;;;;;4.38;2.47;;;;;;;;;;5047238;28;20055;-56
2021/09/14 06:44:05;;;;;;;5.53;2.83;;;;;;;;;;5051272;28;20025;-56
2021/09/14 06:46:31;;;;;;;4.95;2.55;;;;;;;;;;5049707;28;20039;-56
2021/09/14 06:48:57;;;;;;;3.30;1.98;;;;;;;;;;5016927;28;20112;-55
2021/09/14 06:51:23;;;;;;;5.65;2.85;;;;;;;;;;5037682;28;20520;-55
2021/09/14 06:53:49;;;;;;;6.65;2.67;;;;;;;;;;5038451;28;20067;-58
2021/09/14 06:56:15;;;;;;;3.83;2.28;;;;;;;;;;5041745;28;20469;-58
2021/09/14 06:58:41;;;;;;;3.60;2.13;;;;;;;;;;5041657;28;20041;-57
2021/09/14 07:01:07;;;;;;;4.80;2.47;;;;;;;;;;5020334;28;20036;-57
2021/09/14 07:03:34;;;;;;;6.35;2.90;;;;;;;;;;5035858;28;20067;-60
2021/09/14 07:06:00;;;;;;;3.95;1.80;;;;;;;;;;5048119;28;20438;-59
2021/09/14 07:08:26;;;;;;;4.43;2.55;;;;;;;;;;5053880;28;20083;-59
2021/09/14 07:10:52;;;;;;;3.90;2.10;;;;;;;;;;5047550;28;20020;-59
2021/09/14 07:13:17;;;;;;;3.67;2.05;;;;;;;;;;5050087;28;20118;-59
2021/09/14 07:15:43;;;;;;;4.00;2.25;;;;;;;;;;5049766;28;20033;-57
2021/09/14 07:18:09;;;;;;;3.75;1.95;;;;;;;;;;5043299;28;20135;-56
2021/09/14 07:20:35;;;;;;;6.72;2.15;;;;;;;;;;5045584;28;20049;-59
2021/09/14 07:23:02;;;;;;;3.42;1.90;;;;;;;;;;5044310;28;20029;-58
2021/09/14 07:25:28;;;;;;;3.33;2.08;;;;;;;;;;5047700;28;20072;-57
2021/09/14 07:27:54;;;;;;;3.75;1.60;;;;;;;;;;5040272;28;20120;-57
2021/09/14 07:30:20;;;;;;;4.40;2.08;;;;;;;;;;5038425;28;20082;-56
2021/09/14 07:32:51;;;;;;;3.55;1.92;;;;;;;;;;5038946;28;20053;-57
2021/09/14 07:35:17;;;;;;;3.00;1.55;;;;;;;;;;5055113;28;20024;-57
2021/09/14 07:37:43;;;;;;;3.08;1.67;;;;;;;;;;5044623;28;20037;-58
2021/09/14 07:40:09;;;;;;;4.05;1.80;;;;;;;;;;5038931;28;20029;-56
2021/09/14 07:42:35;;;;;;;2.60;1.40;;;;;;;;;;5053416;28;20048;-58
2021/09/14 07:45:01;;;;;;;4.43;1.98;;;;;;;;;;5068745;28;20028;-58
2021/09/14 07:47:27;;;;;;;4.63;2.00;;;;;;;;;;5062438;28;20051;-58
2021/09/14 07:49:53;;;;;;;2.80;1.40;;;;;;;;;;5059645;28;20032;-59
2021/09/14 07:52:19;;;;;;;3.53;1.70;;;;;;;;;;5044547;28;20096;-59
2021/09/14 07:54:45;;;;;;;2.75;1.60;;;;;;;;;;5056196;28;20082;-59
2021/09/14 07:57:11;;;;;;;5.05;1.70;;;;;;;;;;5057692;28;20112;-58
2021/09/14 07:59:37;;;;;;;4.63;1.80;;;;;;;;;;5053424;28;20109;-58
2021/09/14 08:02:03;;;;;;;2.28;1.45;;;;;;;;;;5048377;28;20037;-57
2021/09/14 08:04:29;;;;;;;2.20;1.45;;;;;;;;;;5051201;28;20029;-58
2021/09/14 08:06:56;;;;;;;1.80;1.27;;;;;;;;;;5041645;28;20094;-56
2021/09/14 08:09:22;;;;;;;3.17;1.52;;;;;;;;;;5052383;28;20049;-57
2021/09/14 08:11:48;;;;;;;2.28;1.45;;;;;;;;;;5045291;28;20102;-58
2021/09/14 08:14:14;;;;;;;4.30;1.40;;;;;;;;;;5031303;28;20109;-55
2021/09/14 08:16:40;;;;;;;3.13;1.45;;;;;;;;;;5049962;28;20059;-56
2021/09/14 08:19:06;;;;;;;2.63;1.42;;;;;;;;;;5048067;28;20048;-57
2021/09/14 08:21:32;;;;;;;3.50;1.60;;;;;;;;;;5046656;28;20060;-56
2021/09/14 08:23:58;;;;;;;2.45;1.23;;;;;;;;;;5045274;28;20022;-57
2021/09/14 08:26:24;;;;;;;4.05;1.60;;;;;;;;;;5049648;28;20021;-52
2021/09/14 08:28:50;;;;;;;2.25;1.25;;;;;;;;;;5054414;28;20025;-56
2021/09/14 08:31:17;;;;;;;2.95;1.58;;;;;;;;;;5054924;28;20053;-55
2021/09/14 08:33:43;;;;;;;3.72;1.63;;;;;;;;;;5065207;28;20031;-57
2021/09/14 08:36:09;;;;;;;3.40;1.33;;;;;;;;;;5041102;28;20017;-56
2021/09/14 08:38:35;;;;;;;5.75;1.92;;;;;;;;;;5051998;28;20020;-56
2021/09/14 08:41:01;;;;;;;2.40;1.27;;;;;;;;;;5059513;28;20361;-58
2021/09/14 08:43:28;;;;;;;3.97;1.27;;;;;;;;;;5059824;28;20083;-58
2021/09/14 08:45:54;;;;;;;3.05;1.38;;;;;;;;;;5061844;28;20021;-57
2021/09/14 08:48:21;;;;;;;3.00;1.45;;;;;;;;;;5067931;28;20460;-58
2021/09/14 08:50:47;;;;;;;2.92;1.20;;;;;;;;;;5053942;28;20104;-58
2021/09/14 08:53:13;;;;;;;3.33;1.35;;;;;;;;;;5053630;28;20508;-58
2021/09/14 08:55:39;;;;;;;6.00;1.45;;;;;;;;;;5052528;28;20021;-56
2021/09/14 08:58:08;;;;;;;1.35;1.10;;;;;;;;;;5057680;28;20033;-58
2021/09/14 09:00:35;;;;;;;3.22;1.25;;;;;;;;;;5051399;28;20453;-57
2021/09/14 09:03:01;;;;;;;1.83;0.90;;;;;;;;;;5060998;28;20041;-56
2021/09/14 09:05:34;;;;;;;1.13;0.90;;;;;;;;;;5047286;28;20018;-57
2021/09/14 09:08:03;;;;;;;2.00;1.40;;;;;;;;;;5033418;28;20035;-55
2021/09/14 09:10:30;;;;;;;1.05;0.82;;;;;;;;;;5055012;28;20028;-57
2021/09/14 09:12:57;;;;;;;2.40;0.93;;;;;;;;;;5059502;28;20029;-58
2021/09/14 09:15:31;;;;;;;2.70;1.48;;;;;;;;;;5055635;28;20376;-56
2021/09/14 09:18:10;;;;;;;2.05;1.20;;;;;;;;;;5055675;28;20036;-56
2021/09/14 09:20:40;;;;;;;4.43;0.95;;;;;;;;;;5062162;28;20515;-56
2021/09/14 09:23:10;;;;;;;1.30;0.93;;;;;;;;;;5057580;28;20496;-57
2021/09/14 09:25:37;;;;;;;2.33;1.00;;;;;;;;;;5050666;28;20033;-58
2021/09/14 09:28:16;;;;;;;0.80;0.60;;;;;;;;;;5058036;28;20106;-56
2021/09/14 09:30:43;;;;;;;1.23;0.82;;;;;;;;;;5071339;28;20032;-57
2021/09/14 09:33:10;;;;;;;2.05;0.75;;;;;;;;;;5064097;28;20461;-57
2021/09/14 09:35:37;;;;;;;2.30;1.00;;;;;;;;;;5064755;28;20044;-58
2021/09/14 09:38:04;;;;;;;5.47;1.05;;;;;;;;;;5073177;28;20032;-56
2021/09/14 09:40:34;;;;;;;5.10;1.10;;;;;;;;;;5063218;28;20039;-57
2021/09/14 09:43:05;;;;;;;3.58;1.13;;;;;;;;;;5067226;28;20025;-58
2021/09/14 09:45:31;;;;;;;3.08;1.08;;;;;;;;;;5060901;28;20024;-58
2021/09/14 09:47:57;;;;;;;1.55;0.90;;;;;;;;;;5073152;28;20033;-57
2021/09/14 09:50:23;;;;;;;1.65;0.93;;;;;;;;;;5060584;28;20074;-57
2021/09/14 09:52:49;;;;;;;2.92;1.25;;;;;;;;;;5052709;28;20072;-56
2021/09/14 09:55:15;;;;;;;1.45;1.20;;;;;;;;;;5050750;28;20346;-57
2021/09/14 09:57:42;;;;;;;2.88;1.17;;;;;;;;;;5060011;28;20029;-58
2021/09/14 10:00:12;;;;;;;2.38;1.30;;;;;;;;;;5052257;28;20548;-56
2021/09/14 10:02:50;;;;;;;2.20;1.40;;;;;;;;;;5053419;28;20444;-58
2021/09/14 10:05:16;;;;;;;1.73;0.90;;;;;;;;;;5059036;28;20105;-58
2021/09/14 10:07:44;;;;;;;1.63;1.10;;;;;;;;;;5052375;28;20047;-58
2021/09/14 10:10:11;;;;;;;3.00;0.80;;;;;;;;;;5049594;28;20521;-57
2021/09/14 10:12:37;;;;;;;4.18;0.95;;;;;;;;;;5035934;28;20025;-56
2021/09/14 10:15:14;;;;;;;2.10;1.20;;;;;;;;;;5053186;28;20100;-57
2021/09/14 10:17:53;;;;;;;1.50;0.98;;;;;;;;;;5045135;28;20492;-59
2021/09/14 10:20:21;;;;;;;1.60;0.88;;;;;;;;;;5053722;28;20068;-56
2021/09/14 10:22:58;;;;;;;1.45;0.65;;;;;;;;;;5039563;28;20061;-58
2021/09/14 10:25:24;;;;;;;1.70;0.80;;;;;;;;;;5047373;28;20033;-57
2021/09/14 10:27:50;;;;;;;2.92;1.20;;;;;;;;;;5045755;28;20049;-57
2021/09/14 10:30:22;;;;;;;2.85;0.70;;;;;;;;;;5050412;28;20033;-55
2021/09/14 10:32:48;;;;;;;1.27;0.98;;;;;;;;;;5046044;28;20025;-57
2021/09/14 10:35:27;;;;;;;1.45;0.88;;;;;;;;;;5052550;28;20112;-56
2021/09/14 10:37:53;;;;;;;3.72;0.85;;;;;;;;;;5045415;28;20473;-56
2021/09/14 10:40:20;;;;;;;1.88;0.70;;;;;;;;;;5046620;28;20031;-56
2021/09/14 10:42:47;;;;;;;3.60;1.00;;;;;;;;;;5051992;28;20130;-57
2021/09/14 10:45:18;;;;;;;3.42;1.30;;;;;;;;;;5046143;28;20112;-57
2021/09/14 10:47:51;;;;;;;1.42;0.95;;;;;;;;;;5050567;28;20508;-56
2021/09/14 10:50:27;;;;;;;1.30;0.70;;;;;;;;;;5054673;28;20028;-57
2021/09/14 10:52:57;;;;;;;2.25;0.90;;;;;;;;;;5043911;28;20039;-55
2021/09/14 10:55:23;;;;;;;1.38;0.70;;;;;;;;;;5055757;28;20156;-58
2021/09/14 10:57:51;;;;;;;2.53;0.93;;;;;;;;;;5055155;28;20029;-56
2021/09/14 11:00:18;;;;;;;1.92;1.05;;;;;;;;;;5052230;28;20071;-57
2021/09/14 11:02:54;;;;;;;1.88;0.98;;;;;;;;;;5052413;28;20040;-57
2021/09/14 11:05:20;;;;;;;1.63;1.15;;;;;;;;;;5053477;28;20100;-57
2021/09/14 11:07:46;;;;;;;2.13;1.00;;;;;;;;;;5055530;28;20150;-58
2021/09/14 11:10:13;;;;;;;2.72;0.80;;;;;;;;;;5059842;28;20031;-56
2021/09/14 11:12:44;;;;;;;2.65;1.23;;;;;;;;;;5052295;28;20100;-59
2021/09/14 11:15:11;;;;;;;2.05;1.27;;;;;;;;;;5057267;28;20031;-59
2021/09/14 11:17:37;;;;;;;1.02;0.90;;;;;;;;;;5049622;28;20074;-58
2021/09/14 11:20:10;;;;;;;2.72;1.20;;;;;;;;;;5056098;28;20127;-58
2021/09/14 11:22:37;;;;;;;1.05;0.82;;;;;;;;;;5051903;28;20051;-57
2021/09/14 11:25:04;;;;;;;1.55;1.10;;;;;;;;;;5051911;28;20021;-58
2021/09/14 11:27:30;;;;;;;3.00;1.15;;;;;;;;;;5052358;28;20096;-58
2021/09/14 11:29:57;;;;;;;5.88;1.27;;;;;;;;;;5051896;28;20017;-57
2021/09/14 11:32:23;;;;;;;2.03;1.25;;;;;;;;;;5060167;28;20100;-58
2021/09/14 11:34:52;;;;;;;1.52;0.90;;;;;;;;;;5053622;28;20032;-56
2021/09/14 11:37:31;;;;;;;1.77;1.02;;;;;;;;;;5051452;28;20469;-53
2021/09/14 11:39:58;;;;;;;2.10;1.30;;;;;;;;;;5043366;28;20037;-53
2021/09/14 11:42:24;;;;;;;2.88;1.20;;;;;;;;;;5044172;28;20493;-58
2021/09/14 11:45:00;;;;;;;2.67;1.35;;;;;;;;;;5039378;28;20065;-56
2021/09/14 11:47:26;;;;;;;2.03;1.00;;;;;;;;;;5052998;28;20112;-57
2021/09/14 11:49:52;;;;;;;1.33;1.05;;;;;;;;;;5046148;28;20120;-57
2021/09/14 11:52:18;;;;;;;1.70;1.30;;;;;;;;;;5047449;28;20385;-52
2021/09/14 11:54:45;;;;;;;2.13;1.42;;;;;;;;;;5045261;28;20025;-55
2021/09/14 11:57:21;;;;;;;1.05;0.68;;;;;;;;;;5052435;28;20031;-53
2021/09/14 11:59:47;;;;;;;1.55;1.20;;;;;;;;;;5056813;28;20029;-57
2021/09/14 12:02:15;;;;;;;1.50;0.85;;;;;;;;;;5049034;28;20037;-56
2021/09/14 12:04:41;;;;;;;0.68;0.50;;;;;;;;;;5046588;28;20536;-57
2021/09/14 12:07:16;;;;;;;1.02;0.60;;;;;;;;;;5059671;28;20028;-57
2021/09/14 12:09:43;;;;;;;1.33;0.70;;;;;;;;;;5055825;28;20113;-56
2021/09/14 12:12:12;;;;;;;1.35;0.90;;;;;;;;;;5054911;28;20051;-54
2021/09/14 12:14:38;;;;;;;1.35;0.70;;;;;;;;;;5051948;28;20108;-57
2021/09/14 12:17:05;;;;;;;1.23;0.70;;;;;;;;;;5040959;28;20057;-58
2021/09/14 12:19:33;;;;;;;2.63;0.73;;;;;;;;;;5038959;28;20060;-57
2021/09/14 12:21:59;;;;;;;1.95;0.77;;;;;;;;;;5036764;28;20087;-58
2021/09/14 12:24:25;;;;;;;1.05;0.80;;;;;;;;;;5032846;28;20022;-59
2021/09/14 12:26:51;;;;;;;1.33;0.82;;;;;;;;;;5038521;28;20033;-58
2021/09/14 12:29:18;;;;;;;3.20;0.90;;;;;;;;;;5059338;28;20491;-58
2021/09/14 12:31:45;;;;;;;1.10;0.50;;;;;;;;;;5059653;28;20021;-58
2021/09/14 12:34:11;;;;;;;1.48;0.70;;;;;;;;;;5035628;28;20030;-57
2021/09/14 12:36:41;;;;;;;1.15;0.70;;;;;;;;;;5056818;28;20028;-56
2021/09/14 12:39:07;;;;;;;2.28;0.75;;;;;;;;;;5052794;28;20033;-57
2021/09/14 12:41:33;;;;;;;0.70;0.55;;;;;;;;;;5053184;28;20124;-58
2021/09/14 12:43:59;;;;;;;0.93;0.57;;;;;;;;;;5047650;28;20087;-59
2021/09/14 12:46:25;;;;;;;0.93;0.40;;;;;;;;;;5049796;28;20047;-58
2021/09/14 12:48:51;;;;;;;1.15;0.65;;;;;;;;;;5047614;28;20036;-58
2021/09/14 12:51:17;;;;;;;1.63;0.75;;;;;;;;;;5050434;28;20103;-59
2021/09/14 12:53:43;;;;;;;1.67;0.57;;;;;;;;;;5055219;28;20131;-58
2021/09/14 12:56:10;;;;;;;1.02;0.35;;;;;;;;;;5040927;28;20025;-57
2021/09/14 12:58:36;;;;;;;0.90;0.40;;;;;;;;;;5044731;28;20060;-58
2021/09/14 13:01:03;;;;;;;1.33;0.55;;;;;;;;;;5045820;28;20082;-58
2021/09/14 13:03:29;;;;;;;2.17;0.70;;;;;;;;;;5045477;28;20037;-58
2021/09/14 13:05:55;;;;;;;0.73;0.50;;;;;;;;;;5052174;28;20033;-59
2021/09/14 13:08:21;;;;;;;3.00;0.50;;;;;;;;;;5045864;28;20029;-58
2021/09/14 13:10:47;;;;;;;1.42;0.63;;;;;;;;;;5052150;28;20033;-59
2021/09/14 13:16:16;;;;;;;0.80;0.43;;;;;;;;;;5051567;28;20424;-59
2021/09/14 13:18:45;;;;;;;0.85;0.45;;;;;;;;;;5051862;28;20127;-58
2021/09/14 13:21:13;;;;;;;2.80;0.82;;;;;;;;;;5050563;28;20031;-58
2021/09/14 13:23:40;;;;;;;1.17;0.68;;;;;;;;;;5046741;28;20485;-59
2021/09/14 13:26:06;;;;;;;1.67;0.70;;;;;;;;;;5038176;28;20108;-59
2021/09/14 13:28:33;;;;;;;1.35;0.73;;;;;;;;;;5046298;28;20033;-59
2021/09/14 13:30:59;;;;;;;1.25;0.77;;;;;;;;;;5045812;28;20112;-59
2021/09/14 13:33:25;;;;;;;1.17;0.50;;;;;;;;;;5046337;28;20159;-59
2021/09/14 13:35:51;;;;;;;1.85;0.90;;;;;;;;;;5060651;28;20028;-58
2021/09/14 13:38:17;;;;;;;1.15;0.70;;;;;;;;;;5044257;28;20125;-58
2021/09/14 13:40:46;;;;;;;2.38;0.85;;;;;;;;;;5046803;28;20061;-58
2021/09/14 13:43:12;;;;;;;1.50;0.60;;;;;;;;;;5054522;28;20387;-59
2021/09/14 13:48:26;;;;;;;0.75;0.40;;;;;;;;;;5056834;28;20048;-59
2021/09/14 13:50:52;;;;;;;1.13;0.50;;;;;;;;;;5047465;28;20032;-57
2021/09/14 13:53:18;;;;;;;0.82;0.50;;;;;;;;;;5054745;28;20044;-59
2021/09/14 13:55:45;;;;;;;1.08;0.50;;;;;;;;;;5050291;28;20045;-59
2021/09/14 13:58:11;;;;;;;1.10;0.90;;;;;;;;;;5054809;28;20108;-59
2021/09/14 14:00:37;;;;;;;1.85;0.68;;;;;;;;;;5056596;28;20045;-59
2021/09/14 14:03:04;;;;;;;1.77;0.80;;;;;;;;;;5061298;28;20045;-59
2021/09/14 14:05:30;;;;;;;2.30;0.80;;;;;;;;;;5047390;28;20117;-58
2021/09/14 14:07:56;;;;;;;0.80;0.63;;;;;;;;;;5058095;28;20028;-59
2021/09/14 14:10:22;;;;;;;1.00;0.50;;;;;;;;;;5072019;28;20032;-57
2021/09/14 14:12:48;;;;;;;1.30;0.60;;;;;;;;;;5066918;28;20103;-57
2021/09/14 14:15:14;;;;;;;1.90;0.75;;;;;;;;;;5072189;28;20358;-57
2021/09/14 14:17:40;;;;;;;1.15;0.68;;;;;;;;;;5061132;28;20100;-58
2021/09/14 14:20:06;;;;;;;1.52;0.98;;;;;;;;;;5042437;28;20095;-58
2021/09/14 14:22:32;;;;;;;0.77;0.60;;;;;;;;;;5044902;28;20039;-58
2021/09/14 14:24:59;;;;;;;3.28;0.85;;;;;;;;;;5058622;28;20068;-57
2021/09/14 14:27:25;;;;;;;1.25;0.80;;;;;;;;;;5053623;28;20086;-59
2021/09/14 14:29:51;;;;;;;1.42;0.73;;;;;;;;;;5067585;28;20464;-56
2021/09/14 14:32:17;;;;;;;0.93;0.70;;;;;;;;;;5055250;28;20048;-58
2021/09/14 14:34:43;;;;;;;1.15;0.70;;;;;;;;;;5056495;28;20037;-56
2021/09/14 14:37:10;;;;;;;1.88;1.10;;;;;;;;;;5048567;28;20060;-57
2021/09/14 14:39:35;;;;;;;1.92;0.77;;;;;;;;;;5047584;28;20455;-57
2021/09/14 14:42:01;;;;;;;1.90;0.80;;;;;;;;;;5048624;28;20025;-57
2021/09/14 14:44:27;;;;;;;1.33;0.70;;;;;;;;;;5051105;28;20388;-57
2021/09/14 14:46:53;;;;;;;1.17;0.70;;;;;;;;;;5045866;28;20025;-56
2021/09/14 14:49:19;;;;;;;1.52;0.75;;;;;;;;;;5058769;28;20029;-58
2021/09/14 14:51:45;;;;;;;0.95;0.55;;;;;;;;;;5065559;28;20475;-54
2021/09/14 14:54:11;;;;;;;1.40;0.80;;;;;;;;;;5051766;28;20082;-58
2021/09/14 14:56:38;;;;;;;0.82;0.57;;;;;;;;;;5054437;28;20412;-57
2021/09/14 14:59:04;;;;;;;1.27;0.55;;;;;;;;;;5058484;28;20036;-58
2021/09/14 15:01:30;;;;;;;1.55;0.80;;;;;;;;;;5071922;28;20684;-57
2021/09/14 15:03:56;;;;;;;1.10;0.70;;;;;;;;;;5050417;28;20935;-57
2021/09/14 15:06:22;;;;;;;2.67;0.90;;;;;;;;;;5043424;28;20621;-58
2021/09/14 15:08:48;;;;;;;1.45;0.93;;;;;;;;;;5039375;28;20112;-58
2021/09/14 15:11:14;;;;;;;1.67;0.80;;;;;;;;;;5048028;28;20021;-57
2021/09/14 15:13:40;;;;;;;2.15;1.08;;;;;;;;;;5047487;28;20036;-57
2021/09/14 15:16:06;;;;;;;12.13;1.20;;;;;;;;;;5050736;28;20021;-58
2021/09/14 15:18:33;;;;;;;3.08;1.48;;;;;;;;;;5049641;28;20033;-57
2021/09/14 15:20:59;;;;;;;1.83;0.93;;;;;;;;;;5045907;28;20028;-58
2021/09/14 15:23:25;;;;;;;2.40;1.42;;;;;;;;;;5039153;28;20116;-57
2021/09/14 15:25:52;;;;;;;1.90;0.90;;;;;;;;;;5040773;28;20024;-58
2021/09/14 15:28:18;;;;;;;;;;;;;;;;;;5037300;28;20084;-56
2021/09/14 15:30:44;;;;;;;;;;;;;;;;;;5041595;28;19922;-55
2021/09/14 15:33:10;;;;;;;1.20;1.00;;;;;;;;;;5039349;28;19958;-58
2021/09/14 15:35:36;;;;;;;1.90;1.33;;;;;;;;;;5053210;28;20116;-57